Time;durP1;ratioP1;P1;durP2;ratioP2;P2;SDS_P1;SDS_P2;PMS_P1;PMS_P2;Temp;Humidity;BMP_temperature;BMP_pressure;BME280_temperature;BME280_humidity;BME280_pressure;Samples;Min_cycle;Max_cycle;Signal;HPM_P1;HPM_P2
2023/10/08 00:00:49;;;;;;;2.67;1.85;;;23.20;51.20;;;;;;5002114;28;20100;-65
2023/10/08 00:03:17;;;;;;;2.75;1.40;;;23.20;51.20;;;;;;5000934;28;20031;-64
2023/10/08 00:05:42;;;;;;;2.38;1.20;;;23.20;51.20;;;;;;5000913;28;20026;-66
2023/10/08 00:08:09;;;;;;;2.30;1.40;;;23.20;51.20;;;;;;5000577;28;20102;-65
2023/10/08 00:10:42;;;;;;;3.65;1.92;;;23.20;51.20;;;;;;5000504;28;20077;-64
2023/10/08 00:13:12;;;;;;;3.03;1.40;;;23.20;51.20;;;;;;5000487;28;20026;-65
2023/10/08 00:15:49;;;;;;;2.53;1.60;;;23.20;51.20;;;;;;5002165;28;20026;-64
2023/10/08 00:18:15;;;;;;;3.53;1.40;;;23.20;51.30;;;;;;5002122;28;20473;-65
2023/10/08 00:20:54;;;;;;;2.38;1.30;;;23.20;51.30;;;;;;4999511;28;20549;-64
2023/10/08 00:23:21;;;;;;;2.55;1.52;;;23.20;51.30;;;;;;5002776;28;20029;-64
2023/10/08 00:25:47;;;;;;;3.25;1.35;;;23.20;51.30;;;;;;5000816;28;20053;-65
2023/10/08 00:28:13;;;;;;;2.70;1.60;;;23.10;51.20;;;;;;5000222;28;20509;-64
2023/10/08 00:30:42;;;;;;;2.67;1.50;;;23.10;51.30;;;;;;4999473;28;20027;-64
2023/10/08 00:33:14;;;;;;;2.60;1.50;;;23.10;51.30;;;;;;5000346;28;20018;-65
2023/10/08 00:35:41;;;;;;;2.72;1.48;;;23.10;51.20;;;;;;5000915;28;20385;-64
2023/10/08 00:38:20;;;;;;;2.65;1.50;;;23.10;51.30;;;;;;4998924;28;20045;-65
2023/10/08 00:40:46;;;;;;;3.25;1.40;;;23.10;51.30;;;;;;5000078;28;20039;-65
2023/10/08 00:43:34;;;;;;;2.22;1.30;;;23.10;51.30;;;;;;4998052;28;20077;-64
2023/10/08 00:45:59;;;;;;;2.25;1.35;;;23.10;51.30;;;;;;4999796;28;20023;-65
2023/10/08 00:48:29;;;;;;;3.05;1.42;;;23.10;51.30;;;;;;4998799;28;20041;-66
2023/10/08 00:51:08;;;;;;;2.33;1.40;;;23.10;51.30;;;;;;4999933;28;20057;-66
2023/10/08 00:53:39;;;;;;;2.50;1.58;;;23.10;51.30;;;;;;4999221;28;20364;-66
2023/10/08 00:56:13;;;;;;;2.58;1.40;;;23.00;51.30;;;;;;4999850;28;20018;-66
2023/10/08 00:58:46;;;;;;;1.85;1.20;;;23.00;51.30;;;;;;5000818;28;20022;-66
2023/10/08 01:01:12;;;;;;;2.03;1.30;;;23.00;51.30;;;;;;4997387;28;20027;-66
2023/10/08 01:03:44;;;;;;;2.03;1.30;;;23.00;51.30;;;;;;5000106;28;20034;-66
2023/10/08 01:06:11;;;;;;;2.40;1.40;;;23.00;51.30;;;;;;4997530;28;20194;-66
2023/10/08 01:08:37;;;;;;;2.15;1.42;;;23.00;51.30;;;;;;4999740;28;20030;-65
2023/10/08 01:11:21;;;;;;;2.47;1.25;;;23.00;51.30;;;;;;5000775;28;20545;-65
2023/10/08 01:13:47;;;;;;;2.88;1.30;;;23.00;51.30;;;;;;5000702;28;20023;-64
2023/10/08 01:16:14;;;;;;;2.25;1.42;;;23.00;51.30;;;;;;4998382;28;20085;-64
2023/10/08 01:18:44;;;;;;;2.10;1.30;;;23.00;51.90;;;;;;4998991;28;20026;-64
2023/10/08 01:21:17;;;;;;;2.10;1.20;;;22.90;51.30;;;;;;5000195;28;20034;-65
2023/10/08 01:23:46;;;;;;;2.10;1.30;;;22.90;51.30;;;;;;5000804;28;20044;-63
2023/10/08 01:26:12;;;;;;;2.22;1.40;;;23.00;51.40;;;;;;5001151;28;20040;-62
2023/10/08 01:28:38;;;;;;;2.22;1.42;;;22.90;51.30;;;;;;5001208;28;20042;-63
2023/10/08 01:31:04;;;;;;;2.50;1.30;;;22.90;51.40;;;;;;5000134;28;20038;-63
2023/10/08 01:33:31;;;;;;;2.22;1.33;;;22.90;51.30;;;;;;4998554;28;20121;-64
2023/10/08 01:36:02;;;;;;;2.85;1.50;;;22.90;51.30;;;;;;5000253;28;20034;-62
2023/10/08 01:38:29;;;;;;;2.72;1.50;;;22.90;51.30;;;;;;4998109;28;20041;-63
2023/10/08 01:40:56;;;;;;;1.88;1.20;;;22.90;51.30;;;;;;5001619;28;20481;-64
2023/10/08 01:43:22;;;;;;;2.03;1.30;;;22.90;51.30;;;;;;5002213;28;20092;-63
2023/10/08 01:45:50;;;;;;;2.80;1.33;;;22.90;51.30;;;;;;4999762;28;20038;-63
2023/10/08 01:48:20;;;;;;;2.75;1.30;;;22.90;51.30;;;;;;4998592;28;20108;-63
2023/10/08 01:50:49;;;;;;;2.17;1.20;;;22.90;51.40;;;;;;5000094;28;20073;-63
2023/10/08 01:53:16;;;;;;;;;;;22.90;51.40;;;;;;4997229;28;20029;-63
2023/10/08 01:55:53;;;;;;;2.35;1.30;;;22.90;51.40;;;;;;4999660;28;20452;-63
2023/10/08 01:58:19;;;;;;;1.95;1.20;;;22.90;51.30;;;;;;5000064;28;20088;-62
2023/10/08 02:00:46;;;;;;;2.60;1.60;;;22.90;51.40;;;;;;5002097;28;20033;-67
2023/10/08 02:03:16;;;;;;;2.88;1.50;;;22.90;51.40;;;;;;5014342;28;20022;-67
2023/10/08 02:05:45;;;;;;;2.58;1.40;;;22.90;51.40;;;;;;5001414;28;20853;-66
2023/10/08 02:08:12;;;;;;;;;;;22.90;51.40;;;;;;4999365;28;20034;-67
2023/10/08 02:10:40;;;;;;;2.55;1.50;;;22.80;51.40;;;;;;4998827;28;20262;-67
2023/10/08 02:13:05;;;;;;;1.63;1.10;;;22.80;51.40;;;;;;4998059;28;20018;-67
2023/10/08 02:15:31;;;;;;;1.90;1.13;;;22.80;51.40;;;;;;5000027;28;20030;-67
2023/10/08 02:17:58;;;;;;;1.95;1.27;;;22.80;51.40;;;;;;4999033;28;20033;-67
2023/10/08 02:20:24;;;;;;;2.00;1.30;;;22.80;51.40;;;;;;4999960;28;20036;-67
2023/10/08 02:22:49;;;;;;;2.00;1.20;;;22.80;51.40;;;;;;4998185;28;20410;-67
2023/10/08 02:25:15;;;;;;;1.90;1.20;;;22.80;51.40;;;;;;4996377;28;20019;-68
2023/10/08 02:27:41;;;;;;;2.10;1.27;;;22.70;51.40;;;;;;4997110;28;20018;-67
2023/10/08 02:30:10;;;;;;;2.33;1.40;;;22.80;51.40;;;;;;4999323;28;20862;-67
2023/10/08 02:32:36;;;;;;;1.67;1.10;;;22.80;51.40;;;;;;4997141;28;20030;-67
2023/10/08 02:35:03;;;;;;;2.20;1.20;;;22.70;51.40;;;;;;4998777;28;20265;-67
2023/10/08 02:37:28;;;;;;;2.95;1.75;;;22.70;51.40;;;;;;5004980;28;20811;-68
2023/10/08 02:39:54;;;;;;;2.55;1.35;;;22.70;51.50;;;;;;4997678;28;20102;-68
2023/10/08 02:42:21;;;;;;;1.67;1.05;;;22.70;51.40;;;;;;5000376;28;20092;-68
2023/10/08 02:44:47;;;;;;;2.38;1.50;;;22.70;51.50;;;;;;4997732;28;20484;-68
2023/10/08 02:47:20;;;;;;;2.20;1.27;;;22.70;51.50;;;;;;4998732;28;20126;-67
2023/10/08 02:49:49;;;;;;;2.13;1.33;;;22.70;51.50;;;;;;5000501;28;20532;-67
2023/10/08 02:52:15;;;;;;;1.90;1.20;;;22.70;51.50;;;;;;4998165;28;20030;-67
2023/10/08 02:54:41;;;;;;;2.15;1.23;;;22.70;51.50;;;;;;4998668;28;20026;-68
2023/10/08 02:57:14;;;;;;;2.35;1.30;;;22.70;51.50;;;;;;4996058;28;20095;-67
2023/10/08 02:59:40;;;;;;;2.22;1.20;;;22.70;51.50;;;;;;4998485;28;20077;-68
2023/10/08 03:02:18;;;;;;;1.92;1.33;;;22.70;51.50;;;;;;5001490;28;20038;-68
2023/10/08 03:04:45;;;;;;;2.20;1.33;;;22.70;51.60;;;;;;5013562;28;20038;-66
2023/10/08 03:07:21;;;;;;;2.20;1.30;;;22.70;51.50;;;;;;5013229;28;20418;-65
2023/10/08 03:09:51;;;;;;;2.08;1.20;;;22.70;51.50;;;;;;5001336;28;20508;-63
2023/10/08 03:12:19;;;;;;;2.72;1.30;;;22.70;51.60;;;;;;5002468;28;20184;-62
2023/10/08 03:15:01;;;;;;;1.80;1.10;;;22.70;51.60;;;;;;5000701;28;20080;-62
2023/10/08 03:17:28;;;;;;;;;;;22.60;51.50;;;;;;5003327;28;20022;-61
2023/10/08 03:20:01;;;;;;;2.20;1.40;;;22.60;51.60;;;;;;5002231;28;20369;-63
2023/10/08 03:22:33;;;;;;;2.17;1.20;;;22.60;51.50;;;;;;5000008;28;20085;-62
2023/10/08 03:25:14;;;;;;;2.10;1.30;;;22.60;51.50;;;;;;5000606;28;20132;-62
2023/10/08 03:27:41;;;;;;;2.58;1.27;;;22.60;51.50;;;;;;5000223;28;20085;-63
2023/10/08 03:30:14;;;;;;;2.53;1.48;;;22.60;51.60;;;;;;5001090;28;20023;-66
2023/10/08 03:32:42;;;;;;;2.00;1.15;;;22.60;51.60;;;;;;4998901;28;20027;-65
2023/10/08 03:35:11;;;;;;;2.22;1.20;;;22.60;51.60;;;;;;5003110;28;20101;-65
2023/10/08 03:37:50;;;;;;;2.30;1.30;;;22.60;52.10;;;;;;5001201;28;20101;-65
2023/10/08 03:43:00;;;;;;;1.73;1.10;;;22.60;51.60;;;;;;5002499;28;20162;-66
2023/10/08 03:48:15;;;;;;;2.10;1.23;;;22.60;51.60;;;;;;5001630;28;20644;-66
2023/10/08 03:50:41;;;;;;;2.30;1.10;;;22.60;51.60;;;;;;5000499;28;20113;-65
2023/10/08 03:53:13;;;;;;;1.92;1.17;;;22.60;51.60;;;;;;5001585;28;20026;-65
2023/10/08 03:55:40;;;;;;;2.10;1.30;;;22.60;51.60;;;;;;5001227;28;20113;-65
2023/10/08 03:58:11;;;;;;;2.45;1.33;;;22.60;51.60;;;;;;5002380;28;20037;-65
2023/10/08 04:00:41;;;;;;;2.00;1.33;;;22.50;51.60;;;;;;5002732;28;20030;-65
2023/10/08 04:03:11;;;;;;;1.90;1.23;;;22.50;51.60;;;;;;5001117;28;20026;-65
2023/10/08 04:05:44;;;;;;;2.78;1.50;;;22.50;51.60;;;;;;5000010;28;20034;-65
2023/10/08 04:08:42;;;;;;;2.55;1.58;;;22.50;51.60;;;;;;5001978;28;20025;-65
2023/10/08 04:11:32;;;;;;;2.10;1.30;;;22.50;51.60;;;;;;4998790;28;20053;-65
2023/10/08 04:14:02;;;;;;;2.20;1.33;;;22.50;51.70;;;;;;5002258;28;20018;-66
2023/10/08 04:16:36;;;;;;;2.53;1.50;;;22.50;51.70;;;;;;5001008;28;20077;-66
2023/10/08 04:19:03;;;;;;;1.60;1.20;;;22.50;52.20;;;;;;5003498;28;20029;-64
2023/10/08 04:21:29;;;;;;;1.77;1.15;;;22.50;51.70;;;;;;5000243;28;20494;-64
2023/10/08 04:23:57;;;;;;;2.63;1.30;;;22.50;51.70;;;;;;4999236;28;20081;-64
2023/10/08 04:26:26;;;;;;;1.77;1.10;;;22.50;51.70;;;;;;5001090;28;20057;-64
2023/10/08 04:28:58;;;;;;;2.10;1.40;;;22.50;51.70;;;;;;5001092;28;20061;-63
2023/10/08 04:31:28;;;;;;;2.35;1.30;;;22.50;51.80;;;;;;5001205;28;20038;-64
2023/10/08 04:34:00;;;;;;;2.20;1.30;;;22.50;51.70;;;;;;5002610;28;20438;-64
2023/10/08 04:36:26;;;;;;;2.03;1.20;;;22.50;51.70;;;;;;5001572;28;20125;-64
2023/10/08 04:38:54;;;;;;;1.92;1.20;;;22.40;51.70;;;;;;5002281;28;20116;-67
2023/10/08 04:41:27;;;;;;;2.30;1.35;;;22.50;51.70;;;;;;4999923;28;20081;-67
2023/10/08 04:43:55;;;;;;;2.75;1.27;;;22.40;51.70;;;;;;5000685;28;20026;-67
2023/10/08 04:47:08;;;;;;;2.13;1.20;;;22.40;51.70;;;;;;5000400;28;20026;-67
2023/10/08 04:49:26;;;;;;;2.00;1.20;;;22.40;51.70;;;;;;4999571;28;20108;-67
2023/10/08 04:51:56;;;;;;;2.00;1.27;;;22.50;51.80;;;;;;4999827;28;20486;-67
2023/10/08 04:54:30;;;;;;;1.55;1.10;;;22.40;51.80;;;;;;5000003;28;20712;-68
2023/10/08 04:56:59;;;;;;;2.17;1.30;;;22.40;51.80;;;;;;5000313;28;20054;-66
2023/10/08 04:59:32;;;;;;;;;;;22.40;51.80;;;;;;5000893;28;20026;-67
2023/10/08 05:10:10;;;;;;;2.13;1.20;;;22.40;51.80;;;;;;5000356;28;20029;-67
2023/10/08 05:13:30;;;;;;;1.77;1.10;;;22.40;51.80;;;;;;4999111;28;20034;-68
2023/10/08 05:15:33;;;;;;;1.88;1.17;;;22.40;51.80;;;;;;4998578;28;20048;-68
2023/10/08 05:18:13;;;;;;;2.30;1.30;;;22.40;51.80;;;;;;5001026;28;20056;-67
2023/10/08 05:23:53;;;;;;;2.30;1.35;;;22.40;51.80;;;;;;5000532;28;20443;-67
2023/10/08 05:28:36;;;;;;;2.20;1.20;;;22.40;51.80;;;;;;4998986;28;20015;-66
2023/10/08 05:47:38;;;;;;;1.90;1.13;;;22.40;51.90;;;;;;4999792;28;20068;-65
2023/10/08 05:50:55;;;;;;;1.40;0.98;;;22.30;51.80;;;;;;4999087;28;20030;-63
2023/10/08 05:55:28;;;;;;;1.75;1.20;;;22.30;52.10;;;;;;4998453;28;20042;-62
2023/10/08 05:58:13;;;;;;;2.35;1.35;;;22.30;51.80;;;;;;5001433;28;20037;-63
2023/10/08 06:03:32;;;;;;;1.83;1.10;;;22.30;51.90;;;;;;4999586;28;20081;-63
2023/10/08 06:11:44;;;;;;;1.90;1.20;;;22.30;51.90;;;;;;4997638;28;20036;-62
2023/10/08 06:14:16;;;;;;;1.90;1.25;;;22.30;51.90;;;;;;4998432;28;20030;-63
2023/10/08 06:16:46;;;;;;;2.30;1.35;;;22.30;51.90;;;;;;4999424;28;20057;-63
2023/10/08 06:19:14;;;;;;;1.42;1.10;;;22.30;51.90;;;;;;4997239;28;20424;-64
2023/10/08 06:21:42;;;;;;;1.55;1.02;;;22.30;51.90;;;;;;4999990;28;20028;-63
2023/10/08 06:24:09;;;;;;;1.88;1.20;;;22.30;51.90;;;;;;4997278;28;20109;-63
2023/10/08 06:26:42;;;;;;;2.05;1.00;;;22.30;51.90;;;;;;5001914;28;20025;-63
2023/10/08 06:29:18;;;;;;;1.75;1.00;;;22.30;52.00;;;;;;5014464;28;20406;-63
2023/10/08 06:31:50;;;;;;;1.88;1.17;;;22.30;52.00;;;;;;4998831;28;20028;-63
2023/10/08 06:34:16;;;;;;;1.95;1.15;;;22.30;52.00;;;;;;4999322;28;20031;-63
2023/10/08 06:36:42;;;;;;;2.10;1.23;;;22.30;52.00;;;;;;4998919;28;20179;-63
2023/10/08 06:39:12;;;;;;;1.80;1.20;;;22.20;51.90;;;;;;4997099;28;20030;-68
2023/10/08 06:41:37;;;;;;;1.52;1.05;;;22.20;52.00;;;;;;4998781;28;20100;-67
2023/10/08 06:44:03;;;;;;;1.98;1.13;;;22.20;51.90;;;;;;4997882;28;20038;-67
2023/10/08 06:46:32;;;;;;;1.35;1.00;;;22.20;51.90;;;;;;5010761;28;20474;-67
2023/10/08 06:49:03;;;;;;;1.75;1.10;;;22.20;52.00;;;;;;5002143;28;20041;-67
2023/10/08 06:51:30;;;;;;;2.38;1.17;;;22.20;52.50;;;;;;5003306;28;20034;-67
2023/10/08 06:54:00;;;;;;;1.83;1.13;;;22.20;52.00;;;;;;5000807;28;20374;-67
2023/10/08 06:56:25;;;;;;;;;;;22.20;52.00;;;;;;5001702;28;20422;-67
2023/10/08 06:58:53;;;;;;;1.92;1.15;;;22.20;52.00;;;;;;5009618;28;19909;-63
2023/10/08 07:01:24;;;;;;;2.03;1.30;;;22.20;52.00;;;;;;5003198;28;20064;-63
2023/10/08 07:04:03;;;;;;;2.10;1.20;;;22.20;52.00;;;;;;5002143;28;20440;-64
2023/10/08 07:06:33;;;;;;;2.00;1.10;;;22.20;52.00;;;;;;5002965;28;20026;-63
2023/10/08 07:09:04;;;;;;;1.52;1.05;;;22.20;52.00;;;;;;5002388;28;20105;-64
2023/10/08 07:11:39;;;;;;;1.95;1.15;;;22.20;52.00;;;;;;5002561;28;20036;-63
2023/10/08 07:14:05;;;;;;;2.05;1.20;;;22.20;52.00;;;;;;5001642;28;20101;-63
2023/10/08 07:16:34;;;;;;;2.00;1.15;;;22.20;52.00;;;;;;5002628;28;20054;-64
2023/10/08 07:19:03;;;;;;;1.70;1.08;;;22.20;52.00;;;;;;5002165;28;20463;-65
2023/10/08 07:21:29;;;;;;;1.35;1.00;;;22.20;52.10;;;;;;5001910;28;20074;-63
2023/10/08 07:23:56;;;;;;;1.70;1.10;;;22.20;52.60;;;;;;5002171;28;20038;-64
2023/10/08 07:26:36;;;;;;;1.90;1.10;;;22.20;52.10;;;;;;5000075;28;20064;-64
2023/10/08 07:29:09;;;;;;;1.98;1.20;;;22.20;52.10;;;;;;5001272;28;20038;-64
2023/10/08 07:31:37;;;;;;;1.92;1.25;;;22.20;52.10;;;;;;5003171;28;20102;-63
2023/10/08 07:34:15;;;;;;;1.77;1.10;;;22.20;52.10;;;;;;5000752;28;20031;-63
2023/10/08 07:36:51;;;;;;;2.00;1.20;;;22.20;52.10;;;;;;5003630;28;20117;-63
2023/10/08 07:39:33;;;;;;;2.50;1.27;;;22.20;52.10;;;;;;5001578;28;20037;-66
2023/10/08 07:42:05;;;;;;;1.90;1.10;;;22.10;52.00;;;;;;5004709;28;20112;-63
2023/10/08 07:44:31;;;;;;;1.80;1.13;;;22.10;52.00;;;;;;5000810;28;20490;-63
2023/10/08 07:46:57;;;;;;;2.13;1.20;;;22.10;52.00;;;;;;5002756;28;20042;-64
2023/10/08 07:49:25;;;;;;;1.80;1.20;;;22.10;52.00;;;;;;5002095;28;20035;-63
2023/10/08 07:51:51;;;;;;;1.90;1.20;;;22.10;52.00;;;;;;5002011;28;20393;-63
2023/10/08 07:54:22;;;;;;;1.90;1.10;;;22.10;52.10;;;;;;5001779;28;20474;-66
2023/10/08 07:56:49;;;;;;;1.50;1.00;;;22.10;52.10;;;;;;5003070;28;20094;-64
2023/10/08 07:59:16;;;;;;;1.60;1.00;;;22.20;52.20;;;;;;5001595;28;20034;-64
2023/10/08 08:01:42;;;;;;;1.50;1.00;;;22.20;52.10;;;;;;5000945;28;20386;-64
2023/10/08 08:04:22;;;;;;;2.00;1.20;;;22.20;52.20;;;;;;5002137;28;20085;-64
2023/10/08 08:06:51;;;;;;;1.35;0.95;;;22.10;52.10;;;;;;5003288;28;20084;-64
2023/10/08 08:09:19;;;;;;;2.10;1.27;;;22.10;52.10;;;;;;5001287;28;20030;-66
2023/10/08 08:11:48;;;;;;;1.50;1.02;;;22.10;52.10;;;;;;5000126;28;20030;-67
2023/10/08 08:14:16;;;;;;;1.73;1.10;;;22.10;52.10;;;;;;5001629;28;20045;-67
2023/10/08 08:16:46;;;;;;;1.70;1.13;;;22.10;52.10;;;;;;5016395;28;20034;-67
2023/10/08 08:19:12;;;;;;;1.92;1.20;;;22.10;52.10;;;;;;4999236;28;20421;-67
2023/10/08 08:21:44;;;;;;;2.05;1.23;;;22.10;52.10;;;;;;4999091;28;20120;-67
2023/10/08 08:24:14;;;;;;;2.10;1.13;;;22.10;52.20;;;;;;4999828;28;20576;-67
2023/10/08 08:26:44;;;;;;;1.65;1.10;;;22.10;52.20;;;;;;5002599;28;20068;-67
2023/10/08 08:29:15;;;;;;;1.35;0.90;;;22.10;52.20;;;;;;5002047;28;20022;-66
2023/10/08 08:31:46;;;;;;;1.50;1.02;;;22.10;52.20;;;;;;5000926;28;20374;-67
2023/10/08 08:34:17;;;;;;;2.10;1.27;;;22.10;52.10;;;;;;5001564;28;20026;-67
2023/10/08 08:36:48;;;;;;;1.98;1.20;;;22.10;52.20;;;;;;5001383;28;20014;-67
2023/10/08 08:39:23;;;;;;;1.80;1.08;;;22.10;52.10;;;;;;5002091;28;20113;-67
2023/10/08 08:41:53;;;;;;;1.70;1.20;;;22.10;52.20;;;;;;5001384;28;20038;-67
2023/10/08 08:44:20;;;;;;;2.05;1.40;;;22.10;52.10;;;;;;5001726;28;20031;-67
2023/10/08 08:46:47;;;;;;;1.58;1.00;;;22.10;52.10;;;;;;5000662;28;20030;-67
2023/10/08 08:49:14;;;;;;;1.95;1.30;;;22.10;52.10;;;;;;4999116;28;20034;-67
2023/10/08 08:51:41;;;;;;;1.70;1.00;;;22.10;52.10;;;;;;5001177;28;20027;-68
2023/10/08 08:54:06;;;;;;;1.98;1.23;;;22.10;52.10;;;;;;5000619;28;20022;-68
2023/10/08 08:56:40;;;;;;;1.60;1.10;;;22.10;52.10;;;;;;4997423;28;20046;-67
2023/10/08 08:59:06;;;;;;;2.03;1.20;;;22.10;52.10;;;;;;5001686;28;20045;-67
2023/10/08 09:01:33;;;;;;;1.60;1.17;;;22.10;52.10;;;;;;5000823;28;20030;-63
2023/10/08 09:04:01;;;;;;;1.95;1.23;;;22.10;52.20;;;;;;4999344;28;20034;-63
2023/10/08 09:06:27;;;;;;;1.45;1.00;;;22.10;52.20;;;;;;5000528;28;20030;-63
2023/10/08 09:08:55;;;;;;;2.00;1.20;;;22.10;52.20;;;;;;5000291;28;20026;-64
2023/10/08 09:11:21;;;;;;;1.67;1.00;;;22.10;52.20;;;;;;4999365;28;20033;-64
2023/10/08 09:13:47;;;;;;;1.80;1.20;;;22.10;52.20;;;;;;4999905;28;20022;-63
2023/10/08 09:16:14;;;;;;;1.77;1.25;;;22.10;52.20;;;;;;5000447;28;20437;-63
2023/10/08 09:18:46;;;;;;;2.60;1.13;;;22.10;52.20;;;;;;5000840;28;20058;-63
2023/10/08 09:21:14;;;;;;;1.88;1.10;;;22.10;52.20;;;;;;4999376;28;20034;-63
2023/10/08 09:23:47;;;;;;;2.42;1.33;;;22.10;52.20;;;;;;5000390;28;20564;-63
2023/10/08 09:26:14;;;;;;;2.03;1.27;;;22.10;52.20;;;;;;4997262;28;20030;-62
2023/10/08 09:28:46;;;;;;;1.60;1.10;;;22.10;52.20;;;;;;5001130;28;20378;-62
2023/10/08 09:31:13;;;;;;;2.05;1.30;;;22.10;52.20;;;;;;5000833;28;20114;-63
2023/10/08 09:33:39;;;;;;;1.92;1.13;;;22.10;52.20;;;;;;4997708;28;20026;-63
2023/10/08 09:36:10;;;;;;;1.73;1.10;;;22.10;52.20;;;;;;4999789;28;20065;-64
2023/10/08 09:38:37;;;;;;;2.05;1.27;;;22.10;52.20;;;;;;4999340;28;20105;-62
2023/10/08 09:41:03;;;;;;;1.63;1.08;;;22.00;52.20;;;;;;4998291;28;20381;-63
2023/10/08 09:43:29;;;;;;;1.90;1.20;;;22.00;52.20;;;;;;4999572;28;20117;-64
2023/10/08 09:46:18;;;;;;;2.30;1.40;;;22.10;52.20;;;;;;5000682;28;20025;-63
2023/10/08 09:48:54;;;;;;;2.30;1.20;;;22.00;52.20;;;;;;4998529;28;20034;-64
2023/10/08 09:51:20;;;;;;;1.88;1.20;;;22.10;52.30;;;;;;5000408;28;20492;-63
2023/10/08 09:54:13;;;;;;;1.80;1.10;;;22.10;52.30;;;;;;4999659;28;20022;-62
2023/10/08 09:56:40;;;;;;;1.92;1.13;;;22.10;52.40;;;;;;4998920;28;20030;-62
2023/10/08 09:59:08;;;;;;;2.08;1.23;;;22.10;52.40;;;;;;4999589;28;20026;-62
2023/10/08 10:01:37;;;;;;;1.55;1.10;;;22.00;52.30;;;;;;4998121;28;20109;-64
2023/10/08 10:04:09;;;;;;;2.92;1.30;;;22.10;52.40;;;;;;4998963;28;20379;-61
2023/10/08 10:06:36;;;;;;;1.55;1.00;;;22.10;52.40;;;;;;5000316;28;20030;-62
2023/10/08 10:09:06;;;;;;;1.58;1.17;;;22.10;52.40;;;;;;4999108;28;20022;-61
2023/10/08 10:11:31;;;;;;;2.45;1.27;;;22.00;52.40;;;;;;4996861;28;20038;-62
2023/10/08 10:14:01;;;;;;;2.00;1.40;;;22.10;52.40;;;;;;4997987;28;20035;-61
2023/10/08 10:16:27;;;;;;;2.28;1.30;;;22.00;52.40;;;;;;4998948;28;20041;-61
2023/10/08 10:18:57;;;;;;;2.03;1.20;;;22.10;52.50;;;;;;4995921;28;20029;-61
2023/10/08 10:21:32;;;;;;;2.13;1.30;;;22.10;52.50;;;;;;4998862;28;20035;-61
2023/10/08 10:23:58;;;;;;;1.98;1.30;;;22.00;52.50;;;;;;5000604;28;20088;-61
2023/10/08 10:26:33;;;;;;;1.90;1.20;;;22.10;52.60;;;;;;4998069;28;20100;-61
2023/10/08 10:29:14;;;;;;;2.42;1.33;;;22.00;52.50;;;;;;5001682;28;20038;-62
2023/10/08 10:31:53;;;;;;;2.63;1.50;;;22.00;52.50;;;;;;5000569;28;20030;-66
2023/10/08 10:34:27;;;;;;;2.22;1.33;;;22.10;52.80;;;;;;4998409;28;20027;-67
2023/10/08 10:36:58;;;;;;;3.40;2.10;;;22.10;52.70;;;;;;5000964;28;20041;-65
2023/10/08 10:39:33;;;;;;;2.95;1.95;;;22.10;52.80;;;;;;4997945;28;20076;-65
2023/10/08 10:42:06;;;;;;;4.03;2.60;;;22.10;52.90;;;;;;4998217;28;20033;-65
2023/10/08 10:44:33;;;;;;;7.40;3.83;;;22.00;52.90;;;;;;4998608;28;20092;-66
2023/10/08 10:49:52;;;;;;;10.63;8.30;;;22.00;53.10;;;;;;4996225;28;20026;-65
2023/10/08 10:52:31;;;;;;;14.15;12.68;;;22.10;53.30;;;;;;4998119;28;20204;-65
2023/10/08 10:55:18;;;;;;;21.00;18.50;;;22.10;53.40;;;;;;4998983;28;20232;-63
2023/10/08 10:58:11;;;;;;;37.63;28.52;;;22.00;53.80;;;;;;4996342;28;20041;-65
2023/10/08 11:03:09;;;;;;;41.25;34.05;;;22.10;56.30;;;;;;4998636;28;20398;-64
2023/10/08 11:05:37;;;;;;;45.80;40.90;;;22.20;57.10;;;;;;4998194;28;20058;-65
2023/10/08 11:08:06;;;;;;;48.33;43.33;;;22.20;55.40;;;;;;4999272;28;20038;-65
2023/10/08 11:10:33;;;;;;;44.78;40.13;;;22.20;54.90;;;;;;4998783;28;20404;-65
2023/10/08 11:13:02;;;;;;;45.80;41.00;;;22.20;54.50;;;;;;4996371;28;20105;-64
2023/10/08 11:15:40;;;;;;;47.33;42.25;;;22.30;54.40;;;;;;4995968;28;20026;-65
2023/10/08 11:18:10;;;;;;;43.95;39.35;;;22.30;54.40;;;;;;4997533;28;20426;-66
2023/10/08 11:20:39;;;;;;;38.28;34.47;;;22.30;54.30;;;;;;4998994;28;20508;-63
2023/10/08 11:23:18;;;;;;;;;;;22.30;54.40;;;;;;5000753;28;20034;-63
2023/10/08 11:26:02;;;;;;;31.60;28.50;;;22.30;54.70;;;;;;4998282;28;20111;-63
2023/10/08 11:28:43;;;;;;;30.60;27.50;;;22.30;54.70;;;;;;4999560;28;20042;-64
2023/10/08 11:31:13;;;;;;;30.70;27.60;;;22.30;54.60;;;;;;4998518;28;20122;-63
2023/10/08 11:33:53;;;;;;;28.90;26.08;;;22.30;54.60;;;;;;5004031;28;20037;-63
2023/10/08 11:36:20;;;;;;;27.23;24.55;;;22.30;54.60;;;;;;4999667;28;20093;-63
2023/10/08 11:38:47;;;;;;;27.40;24.58;;;22.30;54.50;;;;;;5001176;28;20378;-63
2023/10/08 11:41:20;;;;;;;27.67;24.85;;;22.30;54.50;;;;;;5001067;28;20132;-64
2023/10/08 11:43:53;;;;;;;29.63;26.63;;;22.30;54.50;;;;;;5003978;28;20034;-64
2023/10/08 11:46:21;;;;;;;29.40;26.42;;;22.30;54.60;;;;;;5001670;28;20030;-64
2023/10/08 11:48:46;;;;;;;29.15;26.25;;;22.30;54.50;;;;;;5004108;28;20056;-64
2023/10/08 11:51:16;;;;;;;29.10;26.10;;;22.30;54.50;;;;;;5001108;28;20538;-64
2023/10/08 11:53:45;;;;;;;28.15;25.35;;;22.30;54.60;;;;;;5001951;28;20030;-64
2023/10/08 11:56:13;;;;;;;30.13;26.92;;;22.30;54.50;;;;;;5000266;28;20901;-64
2023/10/08 11:58:44;;;;;;;29.27;26.38;;;22.40;54.50;;;;;;5000540;28;20033;-64
2023/10/08 12:01:15;;;;;;;28.60;25.63;;;22.30;54.50;;;;;;4999888;28;20029;-64
2023/10/08 12:03:43;;;;;;;28.35;25.50;;;22.30;54.40;;;;;;5000097;28;20045;-64
2023/10/08 12:06:18;;;;;;;27.40;24.50;;;22.30;54.40;;;;;;5000582;28;20038;-64
2023/10/08 12:08:53;;;;;;;26.83;24.02;;;22.30;54.50;;;;;;4999784;28;20076;-64
2023/10/08 12:11:22;;;;;;;25.63;23.02;;;22.30;54.40;;;;;;4999823;28;20058;-64
2023/10/08 12:13:49;;;;;;;26.75;23.90;;;22.30;54.40;;;;;;5001110;28;20033;-64
2023/10/08 12:16:21;;;;;;;25.30;22.80;;;22.40;54.40;;;;;;5001123;28;20379;-64
2023/10/08 12:18:53;;;;;;;25.33;22.83;;;22.30;54.20;;;;;;5001261;28;20323;-64
2023/10/08 12:21:21;;;;;;;23.13;20.83;;;22.30;54.20;;;;;;5002419;28;20394;-64
2023/10/08 12:23:46;;;;;;;22.50;20.20;;;22.30;54.10;;;;;;5000803;28;20038;-64
2023/10/08 12:26:18;;;;;;;21.92;19.65;;;22.30;54.10;;;;;;4999960;28;20048;-64
2023/10/08 12:28:44;;;;;;;19.67;17.58;;;22.30;54.00;;;;;;4999083;28;20030;-64
2023/10/08 12:31:11;;;;;;;20.98;18.88;;;22.30;54.00;;;;;;5001381;28;20049;-64
2023/10/08 12:33:37;;;;;;;20.52;18.42;;;22.30;53.90;;;;;;5001143;28;20026;-64
2023/10/08 12:36:10;;;;;;;20.25;18.15;;;22.30;53.90;;;;;;5000790;28;20446;-64
2023/10/08 12:38:37;;;;;;;20.58;18.48;;;22.30;53.80;;;;;;5002180;28;20429;-64
2023/10/08 12:41:11;;;;;;;19.77;17.75;;;22.30;53.80;;;;;;5002163;28;20029;-61
2023/10/08 12:43:52;;;;;;;19.38;17.42;;;22.30;53.80;;;;;;5000196;28;20037;-60
2023/10/08 12:46:18;;;;;;;19.92;17.92;;;22.30;54.30;;;;;;5002387;28;20028;-60
2023/10/08 12:48:52;;;;;;;20.10;18.02;;;22.30;53.80;;;;;;5000415;28;20654;-62
2023/10/08 12:51:18;;;;;;;19.08;17.17;;;22.30;53.80;;;;;;5001443;28;20077;-62
2023/10/08 12:54:21;;;;;;;18.92;16.92;;;22.30;53.60;;;;;;5000220;28;20394;-62
2023/10/08 12:56:38;;;;;;;18.85;16.80;;;22.30;53.60;;;;;;5000380;28;20046;-63
2023/10/08 12:59:06;;;;;;;23.05;20.75;;;22.30;53.70;;;;;;4999688;28;20018;-63
2023/10/08 13:01:41;;;;;;;24.50;21.90;;;22.40;53.70;;;;;;4999917;28;20503;-64
2023/10/08 13:04:07;;;;;;;22.27;19.98;;;22.30;53.60;;;;;;5000036;28;20080;-63
2023/10/08 13:06:39;;;;;;;23.60;21.13;;;22.30;53.70;;;;;;5000067;28;20029;-63
2023/10/08 13:09:12;;;;;;;22.08;19.70;;;22.40;53.70;;;;;;5001071;28;20109;-63
2023/10/08 13:11:39;;;;;;;21.67;19.38;;;22.40;53.60;;;;;;4998411;28;20069;-63
2023/10/08 13:14:05;;;;;;;21.75;19.45;;;22.40;53.60;;;;;;4999665;28;20022;-63
2023/10/08 13:16:31;;;;;;;23.08;20.77;;;22.50;53.70;;;;;;4997810;28;20390;-64
2023/10/08 13:18:58;;;;;;;20.77;18.58;;;22.50;53.70;;;;;;5000672;28;20019;-63
2023/10/08 13:21:24;;;;;;;21.95;19.05;;;22.50;53.60;;;;;;4999718;28;20022;-63
2023/10/08 13:23:59;;;;;;;20.85;18.73;;;22.50;53.60;;;;;;5000523;28;20690;-63
2023/10/08 13:26:31;;;;;;;20.38;18.27;;;22.50;53.60;;;;;;4998413;28;20052;-64
2023/10/08 13:29:00;;;;;;;19.10;17.13;;;22.50;53.60;;;;;;5013357;28;20478;-63
2023/10/08 13:31:27;;;;;;;17.52;15.80;;;22.50;53.60;;;;;;5000156;28;20030;-63
2023/10/08 13:33:57;;;;;;;18.42;16.48;;;22.50;53.50;;;;;;4999245;28;20061;-64
2023/10/08 13:36:23;;;;;;;17.65;15.85;;;22.60;53.50;;;;;;5002092;28;20106;-63
2023/10/08 13:38:50;;;;;;;16.88;14.85;;;22.60;53.50;;;;;;4996924;28;20027;-63
2023/10/08 13:41:16;;;;;;;16.52;14.82;;;22.60;53.50;;;;;;4999341;28;20097;-65
2023/10/08 13:43:46;;;;;;;16.30;14.63;;;22.50;53.50;;;;;;4998641;28;20034;-66
2023/10/08 13:46:15;;;;;;;17.30;15.50;;;22.60;53.50;;;;;;4997378;28;20076;-64
2023/10/08 13:48:46;;;;;;;15.30;13.70;;;22.60;53.50;;;;;;4999187;28;20057;-65
2023/10/08 13:51:14;;;;;;;15.98;14.38;;;22.60;53.50;;;;;;4999903;28;20350;-62